createdAt,value
2018-11-14T00:01:21.475Z,14.33
2018-11-14T00:03:49.624Z,6.47
2018-11-14T00:06:17.825Z,11.43
2018-11-14T00:08:46.075Z,5.87
2018-11-14T00:11:14.379Z,9.87
2018-11-14T00:13:42.612Z,9.63
2018-11-14T00:16:10.755Z,11.50
2018-11-14T00:18:39.121Z,12.20
2018-11-14T00:21:07.251Z,7.47
2018-11-14T00:23:35.462Z,8.10
2018-11-14T00:26:04.027Z,9.57
2018-11-14T00:28:32.217Z,9.87
2018-11-14T00:31:00.377Z,7.60
2018-11-14T00:33:28.569Z,13.40
2018-11-14T00:35:56.736Z,13.08
2018-11-14T00:38:25.525Z,11.00
2018-11-14T00:40:53.739Z,13.50
2018-11-14T00:43:21.919Z,12.50
2018-11-14T00:45:50.210Z,12.13
2018-11-14T00:48:18.435Z,14.77
2018-11-14T00:50:46.591Z,10.73
2018-11-14T00:53:14.783Z,11.47
2018-11-14T00:55:43.584Z,13.22
2018-11-14T00:58:11.867Z,15.77
2018-11-14T01:00:40.188Z,12.43
2018-11-14T01:03:08.311Z,9.90
2018-11-14T01:05:36.476Z,10.90
2018-11-14T01:08:05.011Z,9.53
2018-11-14T01:10:33.345Z,9.90
2018-11-14T01:13:01.570Z,7.07
2018-11-14T01:15:29.659Z,10.70
2018-11-14T01:17:57.980Z,8.50
2018-11-14T01:20:26.252Z,12.43
2018-11-14T01:22:54.395Z,10.00
2018-11-14T01:25:22.529Z,10.85
2018-11-14T01:27:50.780Z,12.00
2018-11-14T01:30:20.999Z,16.23
2018-11-14T01:32:49.591Z,24.00
2018-11-14T01:35:18.183Z,11.70
2018-11-14T01:37:46.341Z,15.50
2018-11-14T01:40:17.887Z,28.20
2018-11-14T01:42:47.564Z,9.80
2018-11-14T01:45:15.811Z,24.70
2018-11-14T01:47:44.035Z,15.23
2018-11-14T01:50:12.336Z,41.80
2018-11-14T01:52:40.617Z,51.17
2018-11-14T01:55:11.572Z,21.03
2018-11-14T01:57:39.751Z,60.23
2018-11-14T02:00:10.172Z,46.35
2018-11-14T02:02:38.572Z,51.27
2018-11-14T02:05:07.623Z,61.23
2018-11-14T02:07:36.276Z,61.03
2018-11-14T02:10:05.823Z,31.60
2018-11-14T02:12:33.993Z,39.83
2018-11-14T02:15:02.234Z,28.50
2018-11-14T02:17:30.434Z,18.67
2018-11-14T02:19:58.579Z,13.67
2018-11-14T02:22:26.724Z,7.90
2018-11-14T02:24:54.920Z,7.33
2018-11-14T02:27:23.067Z,22.15
2018-11-14T02:29:51.239Z,9.70
2018-11-14T02:32:19.364Z,12.60
2018-11-14T02:34:47.558Z,11.77
2018-11-14T02:37:15.729Z,14.70
2018-11-14T02:39:43.901Z,13.77
2018-11-14T02:42:12.202Z,18.93
2018-11-14T02:44:40.363Z,13.00
2018-11-14T02:47:08.529Z,23.03
2018-11-14T02:49:36.900Z,10.43
2018-11-14T02:52:05.468Z,33.02
2018-11-14T02:54:33.692Z,38.28
2018-11-14T02:57:02.000Z,19.60
2018-11-14T02:59:30.172Z,14.17
2018-11-14T03:01:58.303Z,27.23
2018-11-14T03:04:26.485Z,11.08
2018-11-14T03:06:54.632Z,39.73
2018-11-14T03:09:23.283Z,28.47
2018-11-14T03:11:51.525Z,24.33
2018-11-14T03:14:19.708Z,33.23
2018-11-14T03:16:47.850Z,16.83
2018-11-14T03:19:16.029Z,28.07
2018-11-14T03:21:44.192Z,50.67
2018-11-14T03:24:12.361Z,38.40
2018-11-14T03:26:40.539Z,21.52
2018-11-14T03:29:08.830Z,54.80
2018-11-14T03:31:37.158Z,60.17
2018-11-14T03:34:05.692Z,22.97
2018-11-14T03:36:33.843Z,51.20
2018-11-14T03:39:01.993Z,74.27
2018-11-14T03:41:30.164Z,38.33
2018-11-14T03:43:58.443Z,46.00
2018-11-14T03:46:26.599Z,70.87
2018-11-14T03:48:54.845Z,21.77
2018-11-14T03:51:23.022Z,44.17
2018-11-14T03:53:51.231Z,97.80
2018-11-14T03:56:19.415Z,25.37
2018-11-14T03:58:47.687Z,28.00
2018-11-14T04:01:15.828Z,23.60
2018-11-14T04:03:44.008Z,16.70
2018-11-14T04:06:12.169Z,9.20
2018-11-14T04:08:40.312Z,12.50
2018-11-14T04:11:08.629Z,9.80
2018-11-14T04:13:36.805Z,10.10
2018-11-14T04:16:05.458Z,14.80
2018-11-14T04:18:33.896Z,12.23
2018-11-14T04:21:02.063Z,10.72
2018-11-14T04:23:30.246Z,11.23
2018-11-14T04:25:58.458Z,13.20
2018-11-14T04:28:27.116Z,9.90
2018-11-14T04:30:55.284Z,11.23
2018-11-14T04:33:23.532Z,12.45
2018-11-14T04:35:51.691Z,10.55
2018-11-14T04:38:19.813Z,14.50
2018-11-14T04:40:47.975Z,6.13
2018-11-14T04:43:16.128Z,9.87
2018-11-14T04:45:44.368Z,9.67
2018-11-14T04:48:12.601Z,12.57
2018-11-14T04:50:40.725Z,12.67
2018-11-14T04:53:08.858Z,14.60
2018-11-14T04:55:37.116Z,7.00
2018-11-14T04:58:05.424Z,7.97
2018-11-14T05:00:33.560Z,9.67
2018-11-14T05:03:01.740Z,21.43
2018-11-14T05:05:30.008Z,12.85
2018-11-14T05:07:58.185Z,10.10
2018-11-14T05:10:27.176Z,12.07
2018-11-14T05:12:55.476Z,10.93
2018-11-14T05:15:24.768Z,11.50
2018-11-14T05:17:53.439Z,9.30
2018-11-14T05:20:22.149Z,20.97
2018-11-14T05:22:50.740Z,8.87
2018-11-14T05:25:19.564Z,21.65
2018-11-14T05:27:47.763Z,12.63
2018-11-14T05:30:17.463Z,25.00
2018-11-14T05:32:46.758Z,10.37
2018-11-14T05:35:15.379Z,19.07
2018-11-14T05:37:43.859Z,36.90
2018-11-14T05:40:15.207Z,85.93
2018-11-14T05:42:43.947Z,53.20
2018-11-14T05:45:16.267Z,67.40
2018-11-14T05:47:44.716Z,46.63
2018-11-14T05:50:17.592Z,18.80
2018-11-14T05:52:45.781Z,14.37
2018-11-14T05:55:14.679Z,19.37
2018-11-14T05:57:42.900Z,13.20
2018-11-14T06:00:16.782Z,11.17
2018-11-14T06:02:45.680Z,12.90
2018-11-14T06:05:13.823Z,9.80
2018-11-14T06:07:42.029Z,15.68
2018-11-14T06:10:11.577Z,8.63
2018-11-14T06:12:40.370Z,20.03
2018-11-14T06:15:12.103Z,24.70
2018-11-14T06:17:40.754Z,16.87
2018-11-14T06:20:10.884Z,54.10
2018-11-14T06:22:39.111Z,30.07
2018-11-14T06:25:39.107Z,37.07
2018-11-14T06:28:08.610Z,46.83
2018-11-14T06:30:37.499Z,24.40
2018-11-14T06:33:06.929Z,10.23
2018-11-14T06:35:35.151Z,9.03
2018-11-14T06:38:03.351Z,11.70
2018-11-14T06:40:31.517Z,12.43
2018-11-14T06:42:59.726Z,11.73
2018-11-14T06:45:29.408Z,11.45
2018-11-14T06:47:59.430Z,8.15
2018-11-14T06:50:28.308Z,10.28
2018-11-14T06:52:57.952Z,10.10
2018-11-14T06:55:26.184Z,17.75
2018-11-14T06:57:54.319Z,12.50
2018-11-14T07:00:27.427Z,30.00
2018-11-14T07:02:56.229Z,98.03
2018-11-14T07:05:24.457Z,90.83
2018-11-14T07:07:52.552Z,53.97
2018-11-14T07:10:23.135Z,114.90
2018-11-14T07:12:51.283Z,49.37
2018-11-14T07:15:20.629Z,55.90
2018-11-14T07:17:49.704Z,83.27
2018-11-14T07:20:21.627Z,22.97
2018-11-14T07:22:49.817Z,29.10
2018-11-14T07:25:18.107Z,27.87
2018-11-14T07:27:46.688Z,34.07
2018-11-14T07:30:17.538Z,19.98
2018-11-14T07:32:47.151Z,25.87
2018-11-14T07:35:16.060Z,20.13
2018-11-14T07:38:53.971Z,17.17
2018-11-14T07:41:25.935Z,28.47
2018-11-14T07:43:54.247Z,31.50
2018-11-14T07:46:23.059Z,19.32
2018-11-14T07:48:51.816Z,15.30
2018-11-14T07:51:20.147Z,18.90
2018-11-14T07:53:48.359Z,21.73
2018-11-14T07:56:16.589Z,21.97
2018-11-14T07:58:44.752Z,14.03
2018-11-14T08:01:13.010Z,20.17
2018-11-14T08:03:41.319Z,22.57
2018-11-14T08:06:09.513Z,43.77
2018-11-14T08:08:37.690Z,58.87
2018-11-14T08:11:06.457Z,24.90
2018-11-14T08:13:35.453Z,35.67
2018-11-14T08:16:03.932Z,31.57
2018-11-14T08:18:32.147Z,60.87
2018-11-14T08:21:01.319Z,51.37
2018-11-14T08:23:30.511Z,61.28
2018-11-14T08:25:58.825Z,44.30
2018-11-14T08:28:26.956Z,46.97
2018-11-14T08:30:55.232Z,29.23
2018-11-14T08:33:23.411Z,30.50
2018-11-14T08:35:51.624Z,31.20
2018-11-14T08:38:19.903Z,33.55
2018-11-14T08:40:48.096Z,35.57
2018-11-14T08:43:16.272Z,38.70
2018-11-14T08:45:44.791Z,43.67
2018-11-14T08:48:12.954Z,39.13
2018-11-14T08:50:41.465Z,62.03
2018-11-14T08:53:10.430Z,44.50
2018-11-14T08:55:38.975Z,44.40
2018-11-14T08:58:09.015Z,28.70
2018-11-14T09:00:37.212Z,39.47
2018-11-14T09:03:06.504Z,37.03
2018-11-14T09:05:34.647Z,34.27
2018-11-14T09:08:02.858Z,54.43
2018-11-14T09:10:31.814Z,33.85
2018-11-14T09:13:00.086Z,33.10
2018-11-14T09:15:28.219Z,31.80
2018-11-14T09:17:56.553Z,33.53
2018-11-14T09:20:25.984Z,39.07
2018-11-14T09:22:54.247Z,38.53
2018-11-14T09:25:24.029Z,46.80
2018-11-14T09:27:52.233Z,46.03
2018-11-14T09:30:21.583Z,48.03
2018-11-14T09:32:49.782Z,53.33
2018-11-14T09:35:19.092Z,50.53
2018-11-14T09:37:47.512Z,46.67
2018-11-14T09:40:17.316Z,41.53
2018-11-14T09:42:45.554Z,44.03
2018-11-14T09:45:15.820Z,50.23
2018-11-14T09:47:44.059Z,57.83
2018-11-14T09:50:15.475Z,51.07
2018-11-14T09:52:44.818Z,49.30
2018-11-14T09:55:13.293Z,48.00
2018-11-14T09:57:42.176Z,47.50
2018-11-14T10:00:14.579Z,51.18
2018-11-14T10:02:43.294Z,50.50
2018-11-14T10:05:14.832Z,57.50
2018-11-14T10:07:43.240Z,55.13
2018-11-14T10:10:12.751Z,58.80
2018-11-14T10:12:40.921Z,63.10
2018-11-14T10:15:12.233Z,58.13
2018-11-14T10:17:40.883Z,75.15
2018-11-14T10:20:11.070Z,90.57
2018-11-14T10:22:39.520Z,61.93
2018-11-14T10:25:07.811Z,74.32
2018-11-14T10:27:36.395Z,81.30
2018-11-14T10:30:05.785Z,66.80
2018-11-14T10:32:33.988Z,70.07
2018-11-14T10:35:02.148Z,64.87
2018-11-14T10:37:30.318Z,67.73
2018-11-14T10:39:58.612Z,75.43
2018-11-14T10:42:26.851Z,62.00
2018-11-14T10:44:55.066Z,61.83
2018-11-14T10:47:23.461Z,57.58
2018-11-14T10:49:51.632Z,67.30
2018-11-14T10:52:19.792Z,64.70
2018-11-14T10:54:48.024Z,59.57
2018-11-14T10:57:16.323Z,64.23
2018-11-14T10:59:44.517Z,75.90
2018-11-14T11:02:18.036Z,61.67
2018-11-14T11:04:51.683Z,64.97
2018-11-14T11:07:25.246Z,55.20
2018-11-14T11:09:58.845Z,61.10
2018-11-14T11:12:32.300Z,72.27
2018-11-14T11:15:05.800Z,59.73
2018-11-14T11:17:39.427Z,59.80
2018-11-14T11:20:07.620Z,51.30
2018-11-14T11:22:35.820Z,45.13
2018-11-14T11:25:04.152Z,51.33
2018-11-14T11:27:32.368Z,45.53
2018-11-14T11:30:00.505Z,51.57
2018-11-14T11:32:28.787Z,46.07
2018-11-14T11:34:56.945Z,43.70
2018-11-14T11:37:25.278Z,34.37
2018-11-14T11:39:53.565Z,42.67
2018-11-14T11:42:21.744Z,35.30
2018-11-14T11:44:50.201Z,32.73
2018-11-14T11:47:18.483Z,29.77
2018-11-14T11:49:46.763Z,38.33
2018-11-14T11:52:15.170Z,31.47
2018-11-14T11:54:43.361Z,29.07
2018-11-14T11:57:11.599Z,32.08
2018-11-14T11:59:39.880Z,23.83
2018-11-14T12:02:08.239Z,19.90
2018-11-14T12:04:36.991Z,22.22
2018-11-14T12:07:05.259Z,25.20
2018-11-14T12:09:33.407Z,20.00
2018-11-14T12:12:01.972Z,15.90
2018-11-14T12:14:30.147Z,15.83
2018-11-14T12:16:58.287Z,13.05
2018-11-14T12:19:26.429Z,21.15
2018-11-14T12:21:54.588Z,17.43
2018-11-14T12:24:22.771Z,13.57
2018-11-14T12:26:51.027Z,15.47
2018-11-14T12:29:19.233Z,25.97
2018-11-14T12:31:47.526Z,12.50
2018-11-14T12:34:15.684Z,14.20
2018-11-14T12:36:43.980Z,18.13
2018-11-14T12:39:12.115Z,17.57
2018-11-14T12:41:40.516Z,13.70
2018-11-14T12:44:08.826Z,8.33
2018-11-14T12:46:37.023Z,16.90
2018-11-14T12:49:05.432Z,9.27
2018-11-14T12:51:33.762Z,10.80
2018-11-14T12:54:02.165Z,10.70
2018-11-14T12:56:30.511Z,11.50
2018-11-14T12:58:58.759Z,11.30
2018-11-14T13:01:26.956Z,8.80
2018-11-14T13:03:55.164Z,10.90
2018-11-14T13:06:23.461Z,7.63
2018-11-14T13:08:51.603Z,8.40
2018-11-14T13:11:19.749Z,8.77
2018-11-14T13:13:48.779Z,9.90
2018-11-14T13:16:17.995Z,6.67
2018-11-14T13:18:46.425Z,6.30
2018-11-14T13:21:14.779Z,8.30
2018-11-14T13:23:43.151Z,6.90
2018-11-14T13:26:11.436Z,13.10
2018-11-14T13:28:39.845Z,12.13
2018-11-14T13:31:08.455Z,12.57
2018-11-14T13:33:36.892Z,9.03
2018-11-14T13:36:05.090Z,7.87
2018-11-14T13:38:33.242Z,8.63
2018-11-14T13:41:01.441Z,7.20
2018-11-14T13:43:29.722Z,6.87
2018-11-14T13:45:58.164Z,6.63
2018-11-14T13:48:26.399Z,5.90
2018-11-14T13:50:54.964Z,18.20
2018-11-14T13:53:22.944Z,8.77
2018-11-14T13:55:51.112Z,6.67
2018-11-14T13:58:19.257Z,8.77
2018-11-14T14:00:47.476Z,7.20
2018-11-14T14:03:15.715Z,7.55
2018-11-14T14:05:43.938Z,6.87
2018-11-14T14:08:12.192Z,6.63
2018-11-14T14:10:41.176Z,8.43
2018-11-14T14:13:09.391Z,8.60
2018-11-14T14:15:37.838Z,11.50
2018-11-14T14:18:06.379Z,11.70
2018-11-14T14:20:34.670Z,5.20
2018-11-14T14:23:02.840Z,8.50
2018-11-14T14:25:31.073Z,6.77
2018-11-14T14:27:59.305Z,5.47
2018-11-14T14:30:27.558Z,9.00
2018-11-14T14:32:55.714Z,9.33
2018-11-14T14:35:24.052Z,8.70
2018-11-14T14:37:52.256Z,7.23
2018-11-14T14:40:21.637Z,5.30
2018-11-14T14:42:49.935Z,8.57
2018-11-14T14:45:20.495Z,11.17
2018-11-14T14:47:48.715Z,7.90
2018-11-14T14:50:18.071Z,5.10
2018-11-14T14:52:46.567Z,7.53
2018-11-14T14:55:20.085Z,8.70
2018-11-14T14:57:48.584Z,7.57
2018-11-14T15:00:19.903Z,7.78
2018-11-14T15:02:48.125Z,11.53
2018-11-14T15:05:16.271Z,7.00
2018-11-14T15:07:44.512Z,14.90
2018-11-14T15:10:14.987Z,10.72
2018-11-14T15:12:43.519Z,9.40
2018-11-14T15:15:12.108Z,12.47
2018-11-14T15:17:40.425Z,15.50
2018-11-14T15:20:11.868Z,16.47
2018-11-14T15:22:40.248Z,12.83
2018-11-14T15:25:10.389Z,13.07
2018-11-14T15:27:39.530Z,12.53
2018-11-14T15:30:11.588Z,14.20
2018-11-14T15:32:40.788Z,10.47
2018-11-14T15:35:10.127Z,13.38
2018-11-14T15:37:38.541Z,10.27
2018-11-14T15:40:08.543Z,12.27
2018-11-14T15:42:37.487Z,11.10
2018-11-14T15:45:07.307Z,12.43
2018-11-14T15:47:36.373Z,10.97
2018-11-14T15:50:05.994Z,10.18
2018-11-14T15:52:34.215Z,13.60
2018-11-14T15:55:02.648Z,13.50
2018-11-14T15:57:30.946Z,12.20
2018-11-14T15:59:59.099Z,7.63
2018-11-14T16:02:27.380Z,11.10
2018-11-14T16:04:55.728Z,8.50
2018-11-14T16:07:23.880Z,6.17
2018-11-14T16:09:52.120Z,7.53
2018-11-14T16:12:20.418Z,6.87
2018-11-14T16:14:48.636Z,7.30
2018-11-14T16:17:16.906Z,6.40
2018-11-14T16:19:45.980Z,5.85
2018-11-14T16:22:14.346Z,10.80
2018-11-14T16:24:42.599Z,8.60
2018-11-14T16:27:10.855Z,14.47
2018-11-14T16:29:38.985Z,6.13
2018-11-14T16:32:07.219Z,6.37
2018-11-14T16:34:35.523Z,5.53
2018-11-14T16:37:03.755Z,10.00
2018-11-14T16:39:31.883Z,6.87
2018-11-14T16:42:00.079Z,8.33
2018-11-14T16:44:28.523Z,11.77
2018-11-14T16:46:56.875Z,8.90
2018-11-14T16:49:25.255Z,13.03
2018-11-14T16:51:56.431Z,9.30
2018-11-14T16:54:24.671Z,9.40
2018-11-14T16:56:53.144Z,8.90
2018-11-14T16:59:21.292Z,10.70
2018-11-14T17:01:49.491Z,7.92
2018-11-14T17:04:17.767Z,11.22
2018-11-14T17:06:46.071Z,7.73
2018-11-14T17:09:14.389Z,13.10
2018-11-14T17:11:42.675Z,5.97
2018-11-14T17:14:10.945Z,13.60
2018-11-14T17:16:39.359Z,12.90
2018-11-14T17:19:07.676Z,9.47
2018-11-14T17:21:36.138Z,10.07
2018-11-14T17:24:04.357Z,20.25
2018-11-14T17:26:32.607Z,18.50
2018-11-14T17:29:00.767Z,14.93
2018-11-14T17:31:28.963Z,19.60
2018-11-14T17:33:57.327Z,19.80
2018-11-14T17:36:25.490Z,14.50
2018-11-14T17:38:53.631Z,17.57
2018-11-14T17:41:21.888Z,15.73
2018-11-14T17:43:50.062Z,16.50
2018-11-14T17:46:18.349Z,18.43
2018-11-14T17:48:46.560Z,17.45
2018-11-14T17:51:14.720Z,17.30
2018-11-14T17:53:43.051Z,20.13
2018-11-14T17:56:11.236Z,16.60
2018-11-14T17:58:39.390Z,15.93
2018-11-14T18:01:07.673Z,16.03
2018-11-14T18:03:35.740Z,16.23
2018-11-14T18:06:03.967Z,15.83
2018-11-14T18:08:32.168Z,18.77
2018-11-14T18:11:00.307Z,17.50
2018-11-14T18:13:28.796Z,16.00
2018-11-14T18:15:57.595Z,12.83
2018-11-14T18:18:25.795Z,19.07
2018-11-14T18:20:53.957Z,17.67
2018-11-14T18:23:22.263Z,15.70
2018-11-14T18:25:51.235Z,18.07
2018-11-14T18:28:19.557Z,13.40
2018-11-14T18:30:47.833Z,14.77
2018-11-14T18:33:16.024Z,17.23
2018-11-14T18:35:44.226Z,17.40
2018-11-14T18:38:12.504Z,16.20
2018-11-14T18:40:40.741Z,14.28
2018-11-14T18:43:08.969Z,14.00
2018-11-14T18:45:37.160Z,16.23
2018-11-14T18:48:06.239Z,14.37
2018-11-14T18:50:34.526Z,18.23
2018-11-14T18:53:02.856Z,14.73
2018-11-14T18:55:32.479Z,14.80
2018-11-14T18:58:01.537Z,12.27
2018-11-14T19:00:30.940Z,17.00
2018-11-14T19:02:59.348Z,18.23
2018-11-14T19:05:27.610Z,17.63
2018-11-14T19:07:56.179Z,15.37
2018-11-14T19:10:26.140Z,13.67
2018-11-14T19:12:54.468Z,22.30
2018-11-14T19:15:25.711Z,15.58
2018-11-14T19:17:54.093Z,20.13
2018-11-14T19:20:29.924Z,18.17
2018-11-14T19:22:58.967Z,14.80
2018-11-14T19:25:30.529Z,13.07
2018-11-14T19:27:58.795Z,15.70
2018-11-14T19:30:28.687Z,15.43
2018-11-14T19:32:57.554Z,18.93
2018-11-14T19:35:25.890Z,14.67
2018-11-14T19:37:55.324Z,16.75
2018-11-14T19:40:24.860Z,16.27
2018-11-14T19:42:54.644Z,22.73
2018-11-14T19:45:24.340Z,14.57
2018-11-14T19:47:52.793Z,16.67
2018-11-14T19:50:21.872Z,18.60
2018-11-14T19:52:50.397Z,19.25
2018-11-14T19:55:19.738Z,21.10
2018-11-14T19:57:48.907Z,16.50
2018-11-14T20:00:19.683Z,19.70
2018-11-14T20:02:47.824Z,17.13
2018-11-14T20:05:16.912Z,14.47
2018-11-14T20:07:45.099Z,14.87
2018-11-14T20:10:15.066Z,12.00
2018-11-14T20:12:43.471Z,16.93
2018-11-14T20:15:12.779Z,13.60
2018-11-14T20:17:42.154Z,13.00
2018-11-14T20:20:12.569Z,18.03
2018-11-14T20:22:40.927Z,16.30
2018-11-14T20:25:09.209Z,17.37
2018-11-14T20:27:38.848Z,14.28
2018-11-14T20:30:10.636Z,19.53
2018-11-14T20:32:38.871Z,23.10
2018-11-14T20:35:08.054Z,18.20
2018-11-14T20:37:36.384Z,21.53
2018-11-14T20:40:05.053Z,18.10
2018-11-14T20:42:33.297Z,19.50
2018-11-14T20:45:01.471Z,17.00
2018-11-14T20:47:29.724Z,24.53
2018-11-14T20:49:57.944Z,26.40
2018-11-14T20:52:26.170Z,28.40
2018-11-14T20:54:57.241Z,27.40
2018-11-14T20:57:25.748Z,24.57
2018-11-14T20:59:54.243Z,27.93
2018-11-14T21:02:22.505Z,23.77
2018-11-14T21:04:50.669Z,31.45
2018-11-14T21:07:18.844Z,25.50
2018-11-14T21:09:47.251Z,22.32
2018-11-14T21:12:15.339Z,24.83
2018-11-14T21:14:43.478Z,25.37
2018-11-14T21:17:11.657Z,26.67
2018-11-14T21:19:39.903Z,26.53
2018-11-14T21:22:11.723Z,21.80
2018-11-14T21:24:39.944Z,30.67
2018-11-14T21:27:08.299Z,28.80
2018-11-14T21:29:36.501Z,19.95
2018-11-14T21:32:05.500Z,28.47
2018-11-14T21:34:33.756Z,34.33
2018-11-14T21:37:02.261Z,30.90
2018-11-14T21:39:30.447Z,29.93
2018-11-14T21:41:59.353Z,32.38
2018-11-14T21:44:27.499Z,32.20
2018-11-14T21:46:55.672Z,36.08
2018-11-14T21:49:27.014Z,38.80
2018-11-14T21:51:56.586Z,46.17
2018-11-14T21:54:25.511Z,37.20
2018-11-14T21:56:54.084Z,31.40
2018-11-14T22:02:37.482Z,35.10
2018-11-14T22:05:06.504Z,40.93
2018-11-14T22:07:34.894Z,47.00
2018-11-14T22:10:03.053Z,48.93
2018-11-14T22:12:31.258Z,44.17
2018-11-14T22:14:59.788Z,45.55
2018-11-14T22:17:28.038Z,52.53
2018-11-14T22:19:56.295Z,39.17
2018-11-14T22:22:24.915Z,54.87
2018-11-14T22:24:53.159Z,46.70
2018-11-14T22:27:21.742Z,40.70
2018-11-14T22:29:50.136Z,44.80
2018-11-14T22:32:18.668Z,34.77
2018-11-14T22:34:46.943Z,44.17
2018-11-14T22:37:15.357Z,42.73
2018-11-14T22:39:43.720Z,41.42
2018-11-14T22:42:11.908Z,30.87
2018-11-14T22:44:40.233Z,38.97
2018-11-14T22:47:08.421Z,34.77
2018-11-14T22:49:36.592Z,45.13
2018-11-14T22:52:05.181Z,39.23
2018-11-14T22:54:33.636Z,44.27
2018-11-14T22:57:01.944Z,35.50
2018-11-14T22:59:30.760Z,40.60
2018-11-14T23:01:59.005Z,34.73
2018-11-14T23:04:27.223Z,34.23
2018-11-14T23:06:55.371Z,38.43
2018-11-14T23:09:23.840Z,30.57
2018-11-14T23:11:52.087Z,36.80
2018-11-14T23:14:20.278Z,35.83
2018-11-14T23:16:48.526Z,38.13
2018-11-14T23:19:16.730Z,34.03
2018-11-14T23:21:44.862Z,39.57
2018-11-14T23:24:13.129Z,31.47
2018-11-14T23:26:41.395Z,35.20
2018-11-14T23:29:09.677Z,28.30
2018-11-14T23:31:38.232Z,30.97
2018-11-14T23:34:06.468Z,25.10
2018-11-14T23:36:34.756Z,34.00
2018-11-14T23:39:03.220Z,30.33
2018-11-14T23:41:31.853Z,30.60
2018-11-14T23:44:00.029Z,38.37
2018-11-14T23:46:28.559Z,30.53
2018-11-14T23:48:56.719Z,28.03
2018-11-14T23:51:25.200Z,33.23
2018-11-14T23:53:53.380Z,29.00
2018-11-14T23:56:21.611Z,22.57
2018-11-14T23:58:49.796Z,24.43
